createdAt,value
2018-03-26T00:02:14.984Z,35.83
2018-03-26T00:04:42.457Z,42.17
2018-03-26T00:07:09.910Z,34.50
2018-03-26T00:09:37.359Z,41.07
2018-03-26T00:12:04.829Z,40.53
2018-03-26T00:14:32.306Z,38.53
2018-03-26T00:17:00.528Z,41.70
2018-03-26T00:19:28.003Z,38.50
2018-03-26T00:21:55.459Z,37.50
2018-03-26T00:24:22.935Z,40.23
2018-03-26T00:26:50.411Z,38.77
2018-03-26T00:29:18.616Z,41.27
2018-03-26T00:31:46.107Z,39.13
2018-03-26T00:34:13.553Z,39.17
2018-03-26T00:36:41.021Z,34.70
2018-03-26T00:39:08.474Z,39.03
2018-03-26T00:41:35.930Z,38.30
2018-03-26T00:44:03.391Z,37.80
2018-03-26T00:46:30.864Z,46.60
2018-03-26T00:48:58.329Z,43.60
2018-03-26T00:51:25.779Z,41.80
2018-03-26T00:53:53.268Z,34.67
2018-03-26T00:56:20.705Z,38.23
2018-03-26T00:58:48.944Z,44.17
2018-03-26T01:01:16.401Z,41.93
2018-03-26T01:03:43.873Z,36.83
2018-03-26T01:06:11.319Z,41.93
2018-03-26T01:08:38.782Z,37.80
2018-03-26T01:11:06.235Z,43.07
2018-03-26T01:13:33.710Z,38.37
2018-03-26T01:16:01.172Z,47.57
2018-03-26T01:18:29.134Z,39.20
2018-03-26T01:20:56.598Z,39.47
2018-03-26T01:23:24.056Z,42.23
2018-03-26T01:25:52.298Z,39.47
2018-03-26T01:28:19.796Z,43.60
2018-03-26T01:30:47.265Z,45.40
2018-03-26T01:33:15.480Z,44.00
2018-03-26T01:35:42.974Z,41.30
2018-03-26T01:38:10.424Z,43.63
2018-03-26T01:40:37.869Z,47.70
2018-03-26T01:43:05.322Z,40.87
2018-03-26T01:45:32.804Z,43.57
2018-03-26T01:48:00.241Z,45.93
2018-03-26T01:50:27.722Z,40.97
2018-03-26T01:52:55.165Z,43.50
2018-03-26T01:55:22.639Z,39.47
2018-03-26T01:57:50.860Z,45.20
2018-03-26T02:00:18.415Z,46.23
2018-03-26T02:02:45.871Z,43.23
2018-03-26T02:05:13.372Z,50.00
2018-03-26T02:07:40.826Z,47.00
2018-03-26T02:10:08.263Z,52.13
2018-03-26T02:12:35.744Z,51.07
2018-03-26T02:15:03.200Z,56.80
2018-03-26T02:17:32.149Z,57.73
2018-03-26T02:19:59.623Z,58.17
2018-03-26T02:22:27.691Z,59.53
2018-03-26T02:24:55.155Z,59.57
2018-03-26T02:27:22.621Z,65.07
2018-03-26T02:29:50.096Z,71.20
2018-03-26T02:32:17.548Z,76.33
2018-03-26T02:34:45.003Z,84.80
2018-03-26T02:37:12.471Z,70.47
2018-03-26T02:39:39.940Z,61.50
2018-03-26T02:42:08.164Z,70.87
2018-03-26T02:44:35.653Z,65.20
2018-03-26T02:47:03.108Z,68.07
2018-03-26T02:49:30.561Z,72.17
2018-03-26T02:51:58.021Z,62.97
2018-03-26T02:54:25.475Z,72.17
2018-03-26T02:56:52.917Z,65.00
2018-03-26T02:59:20.400Z,64.90
2018-03-26T03:01:47.868Z,66.63
2018-03-26T03:04:16.460Z,63.97
2018-03-26T03:06:44.690Z,66.50
2018-03-26T03:09:12.169Z,60.20
2018-03-26T03:11:39.618Z,72.03
2018-03-26T03:14:07.052Z,66.93
2018-03-26T03:16:34.549Z,71.00
2018-03-26T03:19:01.992Z,59.77
2018-03-26T03:21:29.452Z,76.30
2018-03-26T03:23:56.893Z,70.40
2018-03-26T03:26:24.395Z,68.27
2018-03-26T03:28:52.624Z,61.90
2018-03-26T03:31:20.085Z,67.60
2018-03-26T03:33:47.540Z,61.10
2018-03-26T03:36:15.069Z,61.63
2018-03-26T03:38:42.528Z,70.73
2018-03-26T03:41:09.990Z,68.57
2018-03-26T03:43:37.440Z,67.87
2018-03-26T03:46:04.896Z,62.20
2018-03-26T03:48:32.398Z,61.70
2018-03-26T03:53:32.328Z,73.83
2018-03-26T03:55:59.781Z,68.83
2018-03-26T03:58:27.619Z,68.40
2018-03-26T04:00:55.063Z,64.27
2018-03-26T04:03:22.520Z,74.87
2018-03-26T04:05:49.969Z,77.03
2018-03-26T04:08:17.413Z,65.43
2018-03-26T04:10:45.648Z,77.97
2018-03-26T04:13:13.096Z,74.90
2018-03-26T04:15:40.565Z,68.73
2018-03-26T04:18:08.029Z,70.77
2018-03-26T04:20:35.911Z,78.33
2018-03-26T04:23:04.140Z,79.37
2018-03-26T04:25:31.574Z,85.80
2018-03-26T04:27:59.037Z,83.77
2018-03-26T04:30:26.499Z,86.07
2018-03-26T04:32:53.981Z,70.50
2018-03-26T04:35:21.420Z,82.03
2018-03-26T04:37:48.893Z,79.03
2018-03-26T04:40:16.352Z,72.23
2018-03-26T04:42:43.807Z,70.73
2018-03-26T04:45:11.288Z,75.37
2018-03-26T04:47:38.731Z,83.17
2018-03-26T04:50:06.205Z,95.37
2018-03-26T04:52:33.672Z,91.63
2018-03-26T04:55:01.899Z,87.77
2018-03-26T04:57:29.383Z,92.17
2018-03-26T04:59:57.239Z,89.40
2018-03-26T05:02:24.705Z,93.73
2018-03-26T05:04:52.176Z,99.50
2018-03-26T05:07:19.624Z,96.50
2018-03-26T05:09:47.079Z,86.80
2018-03-26T05:12:14.527Z,95.10
2018-03-26T05:14:42.000Z,97.47
2018-03-26T05:17:09.499Z,100.73
2018-03-26T05:19:36.980Z,95.00
2018-03-26T05:22:04.452Z,98.50
2018-03-26T05:24:31.943Z,104.50
2018-03-26T05:27:00.163Z,99.67
2018-03-26T05:29:27.649Z,96.77
2018-03-26T05:31:55.277Z,98.33
2018-03-26T05:34:22.733Z,96.20
2018-03-26T05:36:50.194Z,91.93
2018-03-26T05:39:17.675Z,87.37
2018-03-26T05:41:45.111Z,96.20
2018-03-26T05:44:12.566Z,90.67
2018-03-26T05:46:40.032Z,97.93
2018-03-26T05:49:07.503Z,95.13
2018-03-26T05:51:34.956Z,97.37
2018-03-26T05:54:03.194Z,97.67
2018-03-26T05:56:30.635Z,89.80
2018-03-26T05:58:58.885Z,100.43
2018-03-26T06:01:26.398Z,93.13
2018-03-26T06:03:53.855Z,92.23
2018-03-26T06:06:21.324Z,92.77
2018-03-26T06:08:48.780Z,99.07
2018-03-26T06:11:16.256Z,89.27
2018-03-26T06:13:43.709Z,88.00
2018-03-26T06:16:11.163Z,99.57
2018-03-26T06:18:38.645Z,92.83
2018-03-26T06:21:06.152Z,97.20
2018-03-26T06:23:33.605Z,99.77
2018-03-26T06:26:01.066Z,93.73
2018-03-26T06:28:28.542Z,95.47
2018-03-26T06:30:56.431Z,92.30
2018-03-26T06:33:23.873Z,89.53
2018-03-26T06:35:52.109Z,95.87
2018-03-26T06:38:25.176Z,104.93
2018-03-26T06:40:52.580Z,93.27
2018-03-26T06:43:20.087Z,96.27
2018-03-26T06:45:48.319Z,91.80
2018-03-26T06:48:15.790Z,94.80
2018-03-26T06:50:43.277Z,102.73
2018-03-26T06:53:11.500Z,93.13
2018-03-26T06:55:38.975Z,104.13
2018-03-26T06:58:06.451Z,107.60
2018-03-26T07:00:34.023Z,93.50
2018-03-26T07:03:01.482Z,98.63
2018-03-26T07:05:28.928Z,94.83
2018-03-26T07:07:56.394Z,102.37
2018-03-26T07:10:23.881Z,104.37
2018-03-26T07:12:51.330Z,92.87
2018-03-26T07:15:18.775Z,93.80
2018-03-26T07:17:47.007Z,92.53
2018-03-26T07:20:14.460Z,83.70
2018-03-26T07:22:41.964Z,95.17
2018-03-26T07:25:10.191Z,98.20
2018-03-26T07:27:37.640Z,89.10
2018-03-26T07:30:05.131Z,84.20
2018-03-26T07:32:32.587Z,84.23
2018-03-26T07:35:00.831Z,91.57
2018-03-26T07:37:28.303Z,93.60
2018-03-26T07:39:56.861Z,94.63
2018-03-26T07:42:24.299Z,96.70
2018-03-26T07:44:51.744Z,98.30
2018-03-26T07:47:19.993Z,93.83
2018-03-26T07:49:47.458Z,83.60
2018-03-26T07:52:14.910Z,77.33
2018-03-26T07:54:42.392Z,82.37
2018-03-26T07:57:10.614Z,74.07
2018-03-26T07:59:38.093Z,84.80
2018-03-26T08:02:05.545Z,78.93
2018-03-26T08:04:33.007Z,82.90
2018-03-26T08:07:00.471Z,81.87
2018-03-26T08:09:27.958Z,86.23
2018-03-26T08:11:56.189Z,75.40
2018-03-26T08:14:24.432Z,74.80
2018-03-26T08:16:51.897Z,86.63
2018-03-26T08:19:19.800Z,72.47
2018-03-26T08:21:47.279Z,90.13
2018-03-26T08:24:14.729Z,70.60
2018-03-26T08:26:42.186Z,69.97
2018-03-26T08:29:10.408Z,81.87
2018-03-26T08:31:37.863Z,72.23
2018-03-26T08:34:05.308Z,65.60
2018-03-26T08:36:32.793Z,59.80
2018-03-26T08:39:00.242Z,82.20
2018-03-26T08:41:27.723Z,61.33
2018-03-26T08:43:55.171Z,67.03
2018-03-26T08:46:22.632Z,65.00
2018-03-26T08:48:50.124Z,65.43
2018-03-26T08:51:18.351Z,68.43
2018-03-26T08:53:45.831Z,66.73
2018-03-26T08:56:13.277Z,68.30
2018-03-26T08:58:40.742Z,58.83
2018-03-26T09:01:08.984Z,100.57
2018-03-26T09:03:36.492Z,77.00
2018-03-26T09:06:03.941Z,61.63
2018-03-26T09:08:31.378Z,60.37
2018-03-26T09:10:58.850Z,62.50
2018-03-26T09:13:26.303Z,66.67
2018-03-26T09:15:53.771Z,60.33
2018-03-26T09:18:21.224Z,56.67
2018-03-26T09:20:48.711Z,61.53
2018-03-26T09:23:16.972Z,68.67
2018-03-26T09:25:44.431Z,58.50
2018-03-26T09:28:11.899Z,54.10
2018-03-26T09:30:40.159Z,58.23
2018-03-26T09:33:07.688Z,52.67
2018-03-26T09:35:35.143Z,46.83
2018-03-26T09:38:02.608Z,44.90
2018-03-26T09:40:30.126Z,41.47
2018-03-26T09:42:57.528Z,42.73
2018-03-26T09:45:24.994Z,42.17
2018-03-26T09:47:52.480Z,50.07
2018-03-26T09:50:20.706Z,51.53
2018-03-26T09:52:48.183Z,60.73
2018-03-26T09:55:15.663Z,51.23
2018-03-26T09:57:43.901Z,50.53
2018-03-26T10:00:11.379Z,58.57
2018-03-26T10:02:38.823Z,54.57
2018-03-26T10:05:06.313Z,46.00
2018-03-26T10:07:34.579Z,48.97
2018-03-26T10:10:02.045Z,46.90
2018-03-26T10:12:29.513Z,49.03
2018-03-26T10:14:56.993Z,51.50
2018-03-26T10:17:24.456Z,44.40
2018-03-26T10:19:51.931Z,47.30
2018-03-26T10:22:19.407Z,55.00
2018-03-26T10:24:46.853Z,45.40
2018-03-26T10:27:14.306Z,55.53
2018-03-26T10:29:41.783Z,49.43
2018-03-26T10:32:09.242Z,46.90
2018-03-26T10:34:36.735Z,50.07
2018-03-26T10:37:04.178Z,45.93
2018-03-26T10:39:32.412Z,38.47
2018-03-26T10:41:59.879Z,36.10
2018-03-26T10:44:27.398Z,34.50
2018-03-26T10:46:54.836Z,32.17
2018-03-26T10:49:23.132Z,31.50
2018-03-26T10:51:50.571Z,29.60
2018-03-26T10:54:18.054Z,42.93
2018-03-26T10:56:45.499Z,37.50
2018-03-26T10:59:12.967Z,47.17
2018-03-26T11:01:40.440Z,40.27
2018-03-26T11:04:08.657Z,41.57
2018-03-26T11:06:36.873Z,40.33
2018-03-26T11:09:04.338Z,40.27
2018-03-26T11:11:31.805Z,44.13
2018-03-26T11:13:59.343Z,34.13
2018-03-26T11:16:26.898Z,26.50
2018-03-26T11:18:54.456Z,31.53
2018-03-26T11:21:21.920Z,27.17
2018-03-26T11:23:49.388Z,25.80
2018-03-26T11:26:16.876Z,28.50
2018-03-26T11:28:44.352Z,27.43
2018-03-26T11:31:12.573Z,25.70
2018-03-26T11:33:40.119Z,32.77
2018-03-26T11:36:07.583Z,29.97
2018-03-26T11:38:35.022Z,38.83
2018-03-26T11:41:02.508Z,32.20
2018-03-26T11:43:29.955Z,37.33
2018-03-26T11:45:57.411Z,27.37
2018-03-26T11:48:24.866Z,30.37
2018-03-26T11:50:52.327Z,30.93
2018-03-26T11:53:19.783Z,31.90
2018-03-26T11:55:47.250Z,23.90
2018-03-26T11:58:14.720Z,35.47
2018-03-26T12:00:42.216Z,35.40
2018-03-26T12:03:10.061Z,47.90
2018-03-26T12:05:37.516Z,41.83
2018-03-26T12:08:04.984Z,35.70
2018-03-26T12:10:32.447Z,41.60
2018-03-26T12:13:00.668Z,38.97
2018-03-26T12:15:28.137Z,32.10
2018-03-26T12:17:55.597Z,29.93
2018-03-26T12:20:34.841Z,38.47
2018-03-26T12:26:03.875Z,45.40
2018-03-26T12:28:43.213Z,47.87
2018-03-26T12:31:10.677Z,39.27
2018-03-26T12:33:50.742Z,78.23
2018-03-26T12:36:18.991Z,37.53
2018-03-26T12:38:46.451Z,44.53
2018-03-26T12:41:13.909Z,43.80
2018-03-26T12:43:41.384Z,40.83
2018-03-26T12:46:21.480Z,35.77
2018-03-26T12:48:48.940Z,40.93
2018-03-26T12:51:28.352Z,30.13
2018-03-26T12:53:55.795Z,36.87
2018-03-26T12:56:23.258Z,41.20
2018-03-26T12:58:50.698Z,35.33
2018-03-26T13:01:30.998Z,34.63
2018-03-26T13:03:58.458Z,45.17
2018-03-26T13:06:25.937Z,33.30
2018-03-26T13:08:53.383Z,40.70
2018-03-26T13:11:20.853Z,36.57
2018-03-26T13:13:48.315Z,30.97
2018-03-26T13:16:15.763Z,46.40
2018-03-26T13:18:43.251Z,24.23
2018-03-26T13:21:11.494Z,26.13
2018-03-26T13:23:38.984Z,26.57
2018-03-26T13:26:06.440Z,27.13
2018-03-26T13:28:34.674Z,30.47
2018-03-26T13:31:02.127Z,31.73
2018-03-26T13:33:29.595Z,28.40
2018-03-26T13:35:57.073Z,32.17
2018-03-26T13:38:24.533Z,21.57
2018-03-26T13:40:51.997Z,25.60
2018-03-26T13:43:19.462Z,22.83
2018-03-26T13:45:47.708Z,25.57
2018-03-26T13:48:15.180Z,27.70
2018-03-26T13:50:42.641Z,26.33
2018-03-26T13:53:10.143Z,29.10
2018-03-26T13:55:37.632Z,22.17
2018-03-26T13:58:05.078Z,22.80
2018-03-26T14:00:32.551Z,52.90
2018-03-26T14:03:00.032Z,36.30
2018-03-26T14:05:28.240Z,22.47
2018-03-26T14:07:55.684Z,17.73
2018-03-26T14:10:35.065Z,19.60
2018-03-26T14:13:14.416Z,20.27
2018-03-26T14:15:53.836Z,23.93
2018-03-26T14:18:21.339Z,19.17
2018-03-26T14:20:48.753Z,25.57
2018-03-26T14:23:16.229Z,23.30
2018-03-26T14:25:43.691Z,21.63
2018-03-26T14:28:11.159Z,20.97
2018-03-26T14:30:39.390Z,20.27
2018-03-26T14:33:06.946Z,19.00
2018-03-26T14:35:50.084Z,19.20
2018-03-26T14:38:17.534Z,17.50
2018-03-26T14:40:44.999Z,20.83
2018-03-26T14:43:12.469Z,22.97
2018-03-26T14:45:39.930Z,31.13
2018-03-26T14:48:07.402Z,24.00
2018-03-26T14:50:35.616Z,20.40
2018-03-26T14:53:03.089Z,21.27
2018-03-26T14:55:30.556Z,20.47
2018-03-26T14:57:58.029Z,18.07
2018-03-26T15:00:25.519Z,18.93
2018-03-26T15:02:53.769Z,22.57
2018-03-26T15:05:21.215Z,22.07
2018-03-26T15:07:48.691Z,20.43
2018-03-26T15:10:16.174Z,20.37
2018-03-26T15:12:44.384Z,18.40
2018-03-26T15:15:11.873Z,17.90
2018-03-26T15:17:39.329Z,16.50
2018-03-26T15:20:06.796Z,15.30
2018-03-26T15:22:35.010Z,14.53
2018-03-26T15:25:02.496Z,14.57
2018-03-26T15:27:30.006Z,15.50
2018-03-26T15:29:57.391Z,16.80
2018-03-26T15:32:24.882Z,14.53
2018-03-26T15:34:52.343Z,14.70
2018-03-26T15:37:19.846Z,12.10
2018-03-26T15:39:48.052Z,12.50
2018-03-26T15:42:15.619Z,14.17
2018-03-26T15:44:43.930Z,13.97
2018-03-26T15:47:12.169Z,15.90
2018-03-26T15:49:39.623Z,15.60
2018-03-26T15:52:07.100Z,25.97
2018-03-26T15:54:34.592Z,29.90
2018-03-26T15:57:02.077Z,27.50
2018-03-26T15:59:29.543Z,18.53
2018-03-26T16:01:56.523Z,24.90
2018-03-26T16:04:23.967Z,18.70
2018-03-26T16:06:51.451Z,25.50
2018-03-26T16:09:18.903Z,16.77
2018-03-26T16:11:46.350Z,43.47
2018-03-26T16:14:13.817Z,26.10
2018-03-26T16:16:41.283Z,20.53
2018-03-26T16:19:09.508Z,18.77
2018-03-26T16:21:37.000Z,17.40
2018-03-26T16:24:04.443Z,19.87
2018-03-26T16:26:31.926Z,16.90
2018-03-26T16:29:00.194Z,17.30
2018-03-26T16:31:27.651Z,20.73
2018-03-26T16:33:55.565Z,16.60
2018-03-26T16:36:24.895Z,34.80
2018-03-26T16:38:52.373Z,22.03
2018-03-26T16:41:31.851Z,27.27
2018-03-26T16:43:59.328Z,19.07
2018-03-26T16:46:26.776Z,25.10
2018-03-26T16:48:54.211Z,24.17
2018-03-26T16:51:21.744Z,21.60
2018-03-26T16:53:49.207Z,23.27
2018-03-26T16:56:16.673Z,20.13
2018-03-26T16:58:44.990Z,18.57
2018-03-26T17:01:12.480Z,20.73
2018-03-26T17:03:39.933Z,21.47
2018-03-26T17:06:07.390Z,24.17
2018-03-26T17:08:34.840Z,18.43
2018-03-26T17:11:02.357Z,18.37
2018-03-26T17:13:29.773Z,26.80
2018-03-26T17:15:57.260Z,15.30
2018-03-26T17:18:25.483Z,20.87
2018-03-26T17:20:52.928Z,19.30
2018-03-26T17:23:21.171Z,22.03
2018-03-26T17:25:49.466Z,26.73
2018-03-26T17:28:16.903Z,18.83
2018-03-26T17:30:44.392Z,16.40
2018-03-26T17:33:11.838Z,18.90
2018-03-26T17:35:39.401Z,19.17
2018-03-26T17:38:06.840Z,16.70
2018-03-26T17:40:34.303Z,19.63
2018-03-26T17:43:02.519Z,14.80
2018-03-26T17:45:30.380Z,16.40
2018-03-26T17:47:57.915Z,17.90
2018-03-26T17:50:25.375Z,20.05
2018-03-26T17:52:52.813Z,15.20
2018-03-26T17:55:20.297Z,14.60
2018-03-26T17:57:47.762Z,16.87
2018-03-26T18:00:15.215Z,18.90
2018-03-26T18:02:42.658Z,19.70
2018-03-26T18:05:10.123Z,23.47
2018-03-26T18:07:37.606Z,18.47
2018-03-26T18:10:05.128Z,14.80
2018-03-26T18:12:32.586Z,22.93
2018-03-26T18:15:00.074Z,17.33
2018-03-26T18:17:27.546Z,23.50
2018-03-26T18:19:54.995Z,19.77
2018-03-26T18:22:22.538Z,25.10
2018-03-26T18:24:49.964Z,23.17
2018-03-26T18:27:17.436Z,18.73
2018-03-26T18:29:44.913Z,20.10
2018-03-26T18:32:12.348Z,15.30
2018-03-26T18:34:39.799Z,16.90
2018-03-26T18:37:07.361Z,33.37
2018-03-26T18:39:34.826Z,19.20
2018-03-26T18:42:02.663Z,17.80
2018-03-26T18:44:30.162Z,20.10
2018-03-26T18:46:57.604Z,18.10
2018-03-26T18:49:25.088Z,19.60
2018-03-26T18:51:52.532Z,19.90
2018-03-26T18:54:19.995Z,17.60
2018-03-26T18:56:47.459Z,21.27
2018-03-26T18:59:14.920Z,19.73
2018-03-26T19:01:42.382Z,21.93
2018-03-26T19:04:09.839Z,22.50
2018-03-26T19:06:37.294Z,19.13
2018-03-26T19:09:04.745Z,25.27
2018-03-26T19:11:32.180Z,22.90
2018-03-26T19:13:59.647Z,21.10
2018-03-26T19:16:27.163Z,26.83
2018-03-26T19:18:55.389Z,23.57
2018-03-26T19:21:22.865Z,25.27
2018-03-26T19:23:50.343Z,24.20
2018-03-26T19:26:18.594Z,27.07
2018-03-26T19:28:46.128Z,25.80
2018-03-26T19:31:14.303Z,29.40
2018-03-26T19:33:42.525Z,25.00
2018-03-26T19:36:10.767Z,26.20
2018-03-26T19:38:38.210Z,27.03
2018-03-26T19:41:05.657Z,27.30
2018-03-26T19:43:33.126Z,26.00
2018-03-26T19:46:00.590Z,38.53
2018-03-26T19:48:28.028Z,32.60
2018-03-26T19:50:55.505Z,31.90
2018-03-26T19:53:22.939Z,31.60
2018-03-26T19:55:50.406Z,35.53
2018-03-26T19:58:17.852Z,26.50
2018-03-26T20:00:45.303Z,28.20
2018-03-26T20:03:12.758Z,33.47
2018-03-26T20:05:40.263Z,37.83
2018-03-26T20:08:07.716Z,31.50
2018-03-26T20:10:35.218Z,31.27
2018-03-26T20:13:04.419Z,29.73
2018-03-26T20:15:31.887Z,36.53
2018-03-26T20:17:59.333Z,32.23
2018-03-26T20:20:26.793Z,36.57
2018-03-26T20:22:54.257Z,34.87
2018-03-26T20:25:21.760Z,32.73
2018-03-26T20:27:49.277Z,35.03
2018-03-26T20:30:16.743Z,35.47
2018-03-26T20:32:44.197Z,40.17
2018-03-26T20:35:11.648Z,37.37
2018-03-26T20:37:39.112Z,40.17
2018-03-26T20:40:06.612Z,36.67
2018-03-26T20:42:34.050Z,44.17
2018-03-26T20:45:01.513Z,35.10
2018-03-26T20:47:29.037Z,38.07
2018-03-26T20:49:56.481Z,37.63
2018-03-26T20:52:23.955Z,34.70
2018-03-26T20:54:51.425Z,36.47
2018-03-26T20:57:18.863Z,39.43
2018-03-26T20:59:46.358Z,44.27
2018-03-26T21:02:13.957Z,36.70
2018-03-26T21:04:42.159Z,40.17
2018-03-26T21:07:09.629Z,36.10
2018-03-26T21:09:37.064Z,33.30
2018-03-26T21:12:04.524Z,35.70
2018-03-26T21:14:31.986Z,39.93
2018-03-26T21:17:00.341Z,34.53
2018-03-26T21:19:27.807Z,38.57
2018-03-26T21:21:55.256Z,35.20
2018-03-26T21:24:22.711Z,35.60
2018-03-26T21:26:50.144Z,34.70
2018-03-26T21:29:17.620Z,31.20
2018-03-26T21:31:45.144Z,35.20
2018-03-26T21:34:13.429Z,38.30
2018-03-26T21:36:41.655Z,31.97
2018-03-26T21:39:09.168Z,37.43
2018-03-26T21:41:37.472Z,43.00
2018-03-26T21:44:04.969Z,43.40
2018-03-26T21:46:32.471Z,35.00
2018-03-26T21:49:00.732Z,36.07
2018-03-26T21:51:28.195Z,36.60
2018-03-26T21:53:55.671Z,36.93
2018-03-26T21:56:23.908Z,34.13
2018-03-26T21:58:51.384Z,30.73
2018-03-26T22:01:18.826Z,42.73
2018-03-26T22:03:46.271Z,36.40
2018-03-26T22:06:13.775Z,33.63
2018-03-26T22:08:42.004Z,34.30
2018-03-26T22:11:09.467Z,34.93
2018-03-26T22:13:37.762Z,36.27
2018-03-26T22:16:05.217Z,31.37
2018-03-26T22:18:32.747Z,36.17
2018-03-26T22:21:01.089Z,34.63
2018-03-26T22:23:28.593Z,36.97
2018-03-26T22:25:56.032Z,32.80
2018-03-26T22:28:23.498Z,36.40
2018-03-26T22:30:50.955Z,35.47
2018-03-26T22:33:18.403Z,29.93
2018-03-26T22:35:45.893Z,34.20
2018-03-26T22:38:13.328Z,34.03
2018-03-26T22:40:40.801Z,28.73
2018-03-26T22:43:08.315Z,33.50
2018-03-26T22:45:35.776Z,31.63
2018-03-26T22:48:03.222Z,30.20
2018-03-26T22:50:30.704Z,30.63
2018-03-26T22:52:58.195Z,31.33
2018-03-26T22:55:25.708Z,26.63
2018-03-26T22:57:54.712Z,26.47
2018-03-26T23:00:22.171Z,30.03
2018-03-26T23:02:49.636Z,30.27
2018-03-26T23:05:17.114Z,29.47
2018-03-26T23:07:44.580Z,28.93
2018-03-26T23:10:12.192Z,27.30
2018-03-26T23:12:39.618Z,29.83
2018-03-26T23:15:07.875Z,33.60
2018-03-26T23:17:35.325Z,28.50
2018-03-26T23:20:03.059Z,31.17
2018-03-26T23:22:42.476Z,32.43
2018-03-26T23:25:09.960Z,32.70
2018-03-26T23:27:37.389Z,26.20
2018-03-26T23:30:04.910Z,26.67
2018-03-26T23:32:33.144Z,33.37
2018-03-26T23:35:00.640Z,26.73
2018-03-26T23:37:28.127Z,27.93
2018-03-26T23:39:56.332Z,31.47
2018-03-26T23:42:24.076Z,33.33
2018-03-26T23:44:51.567Z,30.57
2018-03-26T23:47:19.003Z,29.20
2018-03-26T23:49:46.491Z,40.70
2018-03-26T23:52:14.703Z,28.57
2018-03-26T23:54:42.941Z,30.50
2018-03-26T23:57:10.403Z,35.80
2018-03-26T23:59:37.868Z,29.53
